sensor_id;sensor_type;location;lat;lon;timestamp;temperature;humidity
78438;SHT31;67736;51.978;5.656;2023-07-24T00:01:32;21.1;71.7
78438;SHT31;67736;51.978;5.656;2023-07-24T00:04:02;21.1;71.9
78438;SHT31;67736;51.978;5.656;2023-07-24T00:06:31;21.1;72.0
78438;SHT31;67736;51.978;5.656;2023-07-24T00:09:01;21.1;72.1
78438;SHT31;67736;51.978;5.656;2023-07-24T00:11:33;21.1;72.3
78438;SHT31;67736;51.978;5.656;2023-07-24T00:14:05;21.1;72.2
78438;SHT31;67736;51.978;5.656;2023-07-24T00:16:36;21.1;72.4
78438;SHT31;67736;51.978;5.656;2023-07-24T00:19:06;21.1;72.6
78438;SHT31;67736;51.978;5.656;2023-07-24T00:21:35;21.1;72.7
78438;SHT31;67736;51.978;5.656;2023-07-24T00:24:05;21.1;72.7
78438;SHT31;67736;51.978;5.656;2023-07-24T00:26:35;21.1;72.8
78438;SHT31;67736;51.978;5.656;2023-07-24T00:29:04;21.1;72.8
78438;SHT31;67736;51.978;5.656;2023-07-24T00:31:34;21.1;72.9
78438;SHT31;67736;51.978;5.656;2023-07-24T00:34:04;21.1;72.9
78438;SHT31;67736;51.978;5.656;2023-07-24T00:36:33;21.1;72.9
78438;SHT31;67736;51.978;5.656;2023-07-24T00:39:03;21.1;72.7
78438;SHT31;67736;51.978;5.656;2023-07-24T00:41:32;21.1;72.6
78438;SHT31;67736;51.978;5.656;2023-07-24T00:44:02;21.1;72.7
78438;SHT31;67736;51.978;5.656;2023-07-24T00:46:32;21.1;72.7
78438;SHT31;67736;51.978;5.656;2023-07-24T00:49:04;21.1;72.8
78438;SHT31;67736;51.978;5.656;2023-07-24T00:51:34;21.1;72.8
78438;SHT31;67736;51.978;5.656;2023-07-24T00:54:06;21.1;72.9
78438;SHT31;67736;51.978;5.656;2023-07-24T00:56:37;21.1;73.0
78438;SHT31;67736;51.978;5.656;2023-07-24T00:59:08;21.1;73.1
78438;SHT31;67736;51.978;5.656;2023-07-24T01:01:40;21.1;73.2
78438;SHT31;67736;51.978;5.656;2023-07-24T01:04:11;21.1;73.3
78438;SHT31;67736;51.978;5.656;2023-07-24T01:06:40;21.1;73.3
78438;SHT31;67736;51.978;5.656;2023-07-24T01:09:12;21.1;73.4
78438;SHT31;67736;51.978;5.656;2023-07-24T01:11:46;21.1;73.5
78438;SHT31;67736;51.978;5.656;2023-07-24T01:14:22;21.1;73.6
78438;SHT31;67736;51.978;5.656;2023-07-24T01:16:56;21.1;73.6
78438;SHT31;67736;51.978;5.656;2023-07-24T01:19:36;21.1;73.6
78438;SHT31;67736;51.978;5.656;2023-07-24T01:22:14;21.1;73.6
78438;SHT31;67736;51.978;5.656;2023-07-24T01:25:04;21.1;73.8
78438;SHT31;67736;51.978;5.656;2023-07-24T01:27:34;21.1;73.6
78438;SHT31;67736;51.978;5.656;2023-07-24T01:30:04;21.1;73.6
78438;SHT31;67736;51.978;5.656;2023-07-24T01:32:34;21.1;73.6
78438;SHT31;67736;51.978;5.656;2023-07-24T01:35:04;21.1;73.5
78438;SHT31;67736;51.978;5.656;2023-07-24T01:37:36;21.1;73.5
78438;SHT31;67736;51.978;5.656;2023-07-24T01:40:10;21.0;73.6
78438;SHT31;67736;51.978;5.656;2023-07-24T01:42:41;21.0;73.6
78438;SHT31;67736;51.978;5.656;2023-07-24T01:45:11;21.0;73.7
78438;SHT31;67736;51.978;5.656;2023-07-24T01:47:40;21.0;73.7
78438;SHT31;67736;51.978;5.656;2023-07-24T01:50:12;21.0;73.7
78438;SHT31;67736;51.978;5.656;2023-07-24T01:52:42;21.0;73.8
78438;SHT31;67736;51.978;5.656;2023-07-24T01:55:14;21.0;73.8
78438;SHT31;67736;51.978;5.656;2023-07-24T01:57:44;21.0;73.7
78438;SHT31;67736;51.978;5.656;2023-07-24T02:00:14;21.0;73.7
78438;SHT31;67736;51.978;5.656;2023-07-24T02:02:43;21.0;73.7
78438;SHT31;67736;51.978;5.656;2023-07-24T02:05:13;21.0;73.8
78438;SHT31;67736;51.978;5.656;2023-07-24T02:07:43;21.0;73.8
78438;SHT31;67736;51.978;5.656;2023-07-24T02:10:12;21.0;73.7
78438;SHT31;67736;51.978;5.656;2023-07-24T02:12:44;20.9;73.7
78438;SHT31;67736;51.978;5.656;2023-07-24T02:15:13;20.9;73.8
78438;SHT31;67736;51.978;5.656;2023-07-24T02:17:43;20.9;73.8
78438;SHT31;67736;51.978;5.656;2023-07-24T02:20:12;20.9;73.8
78438;SHT31;67736;51.978;5.656;2023-07-24T02:22:42;20.9;74.0
78438;SHT31;67736;51.978;5.656;2023-07-24T02:25:12;20.9;74.1
78438;SHT31;67736;51.978;5.656;2023-07-24T02:27:41;20.9;74.2
78438;SHT31;67736;51.978;5.656;2023-07-24T02:30:11;20.9;74.3
78438;SHT31;67736;51.978;5.656;2023-07-24T02:32:41;20.8;74.4
78438;SHT31;67736;51.978;5.656;2023-07-24T02:35:10;20.8;74.2
78438;SHT31;67736;51.978;5.656;2023-07-24T02:37:40;20.8;74.2
78438;SHT31;67736;51.978;5.656;2023-07-24T02:40:13;20.8;73.9
78438;SHT31;67736;51.978;5.656;2023-07-24T02:42:42;20.8;73.8
78438;SHT31;67736;51.978;5.656;2023-07-24T02:45:14;20.8;73.6
78438;SHT31;67736;51.978;5.656;2023-07-24T02:47:43;20.8;73.3
78438;SHT31;67736;51.978;5.656;2023-07-24T02:50:13;20.8;73.2
78438;SHT31;67736;51.978;5.656;2023-07-24T02:52:42;20.8;72.8
78438;SHT31;67736;51.978;5.656;2023-07-24T02:55:12;20.8;72.5
78438;SHT31;67736;51.978;5.656;2023-07-24T02:57:41;20.8;72.4
78438;SHT31;67736;51.978;5.656;2023-07-24T03:00:12;20.8;72.5
78438;SHT31;67736;51.978;5.656;2023-07-24T03:02:44;20.8;72.3
78438;SHT31;67736;51.978;5.656;2023-07-24T03:05:13;20.8;72.1
78438;SHT31;67736;51.978;5.656;2023-07-24T03:07:45;20.8;72.2
78438;SHT31;67736;51.978;5.656;2023-07-24T03:10:14;20.8;72.3
78438;SHT31;67736;51.978;5.656;2023-07-24T03:12:44;20.8;71.9
78438;SHT31;67736;51.978;5.656;2023-07-24T03:15:14;20.8;72.2
78438;SHT31;67736;51.978;5.656;2023-07-24T03:17:43;20.8;71.7
78438;SHT31;67736;51.978;5.656;2023-07-24T03:20:15;20.8;72.2
78438;SHT31;67736;51.978;5.656;2023-07-24T03:22:45;20.8;71.8
78438;SHT31;67736;51.978;5.656;2023-07-24T03:25:15;20.8;72.1
78438;SHT31;67736;51.978;5.656;2023-07-24T03:27:46;20.8;72.1
78438;SHT31;67736;51.978;5.656;2023-07-24T03:30:16;20.8;72.1
78438;SHT31;67736;51.978;5.656;2023-07-24T03:32:46;20.9;72.2
78438;SHT31;67736;51.978;5.656;2023-07-24T03:35:15;20.9;72.0
78438;SHT31;67736;51.978;5.656;2023-07-24T03:37:45;20.9;72.3
78438;SHT31;67736;51.978;5.656;2023-07-24T03:40:16;20.9;72.4
78438;SHT31;67736;51.978;5.656;2023-07-24T03:42:46;20.9;72.5
78438;SHT31;67736;51.978;5.656;2023-07-24T03:45:15;20.9;72.3
78438;SHT31;67736;51.978;5.656;2023-07-24T03:47:45;20.9;72.7
78438;SHT31;67736;51.978;5.656;2023-07-24T03:50:16;20.9;72.8
78438;SHT31;67736;51.978;5.656;2023-07-24T03:52:46;20.9;72.6
78438;SHT31;67736;51.978;5.656;2023-07-24T03:55:16;20.9;72.4
78438;SHT31;67736;51.978;5.656;2023-07-24T03:57:45;20.9;71.9
78438;SHT31;67736;51.978;5.656;2023-07-24T04:00:15;20.9;72.2
78438;SHT31;67736;51.978;5.656;2023-07-24T04:02:47;20.9;72.1
78438;SHT31;67736;51.978;5.656;2023-07-24T04:05:17;20.9;72.3
78438;SHT31;67736;51.978;5.656;2023-07-24T04:07:46;20.9;71.5
78438;SHT31;67736;51.978;5.656;2023-07-24T04:10:16;20.9;71.7
78438;SHT31;67736;51.978;5.656;2023-07-24T04:12:46;20.8;72.2
78438;SHT31;67736;51.978;5.656;2023-07-24T04:15:15;20.8;72.4
78438;SHT31;67736;51.978;5.656;2023-07-24T04:17:45;20.8;72.1
78438;SHT31;67736;51.978;5.656;2023-07-24T04:20:17;20.8;72.1
78438;SHT31;67736;51.978;5.656;2023-07-24T04:22:46;20.7;71.9
78438;SHT31;67736;51.978;5.656;2023-07-24T04:25:16;20.7;72.2
78438;SHT31;67736;51.978;5.656;2023-07-24T04:27:46;20.7;72.2
78438;SHT31;67736;51.978;5.656;2023-07-24T04:30:15;20.7;72.0
78438;SHT31;67736;51.978;5.656;2023-07-24T04:32:45;20.7;72.3
78438;SHT31;67736;51.978;5.656;2023-07-24T04:35:15;20.6;72.3
78438;SHT31;67736;51.978;5.656;2023-07-24T04:37:45;20.6;72.7
78438;SHT31;67736;51.978;5.656;2023-07-24T04:40:14;20.6;72.4
78438;SHT31;67736;51.978;5.656;2023-07-24T04:42:44;20.6;72.7
78438;SHT31;67736;51.978;5.656;2023-07-24T04:45:14;20.6;72.4
78438;SHT31;67736;51.978;5.656;2023-07-24T04:47:43;20.5;72.6
78438;SHT31;67736;51.978;5.656;2023-07-24T04:50:13;20.5;73.0
78438;SHT31;67736;51.978;5.656;2023-07-24T04:52:42;20.5;72.7
78438;SHT31;67736;51.978;5.656;2023-07-24T04:55:12;20.5;73.1
78438;SHT31;67736;51.978;5.656;2023-07-24T04:57:41;20.5;72.9
78438;SHT31;67736;51.978;5.656;2023-07-24T05:00:12;20.5;73.1
78438;SHT31;67736;51.978;5.656;2023-07-24T05:02:42;20.5;72.7
78438;SHT31;67736;51.978;5.656;2023-07-24T05:05:12;20.5;72.3
78438;SHT31;67736;51.978;5.656;2023-07-24T05:07:41;20.5;72.2
78438;SHT31;67736;51.978;5.656;2023-07-24T05:10:11;20.5;72.2
78438;SHT31;67736;51.978;5.656;2023-07-24T05:12:42;20.5;72.2
78438;SHT31;67736;51.978;5.656;2023-07-24T05:15:13;20.4;72.3
78438;SHT31;67736;51.978;5.656;2023-07-24T05:17:44;20.4;72.4
78438;SHT31;67736;51.978;5.656;2023-07-24T05:20:14;20.4;72.7
78438;SHT31;67736;51.978;5.656;2023-07-24T05:22:44;20.4;72.6
78438;SHT31;67736;51.978;5.656;2023-07-24T05:25:16;20.4;72.7
78438;SHT31;67736;51.978;5.656;2023-07-24T05:27:45;20.3;73.1
78438;SHT31;67736;51.978;5.656;2023-07-24T05:30:15;20.3;73.5
78438;SHT31;67736;51.978;5.656;2023-07-24T05:32:44;20.3;73.7
78438;SHT31;67736;51.978;5.656;2023-07-24T05:35:14;20.3;73.6
78438;SHT31;67736;51.978;5.656;2023-07-24T05:37:43;20.3;74.0
78438;SHT31;67736;51.978;5.656;2023-07-24T05:40:13;20.3;73.7
78438;SHT31;67736;51.978;5.656;2023-07-24T05:42:43;20.4;73.7
78438;SHT31;67736;51.978;5.656;2023-07-24T05:45:12;20.4;73.7
78438;SHT31;67736;51.978;5.656;2023-07-24T05:47:42;20.4;73.1
78438;SHT31;67736;51.978;5.656;2023-07-24T05:50:14;20.4;73.2
78438;SHT31;67736;51.978;5.656;2023-07-24T05:52:43;20.4;73.4
78438;SHT31;67736;51.978;5.656;2023-07-24T05:55:13;20.4;73.0
78438;SHT31;67736;51.978;5.656;2023-07-24T05:57:42;20.4;72.6
78438;SHT31;67736;51.978;5.656;2023-07-24T06:00:14;20.4;72.5
78438;SHT31;67736;51.978;5.656;2023-07-24T06:02:44;20.4;72.7
78438;SHT31;67736;51.978;5.656;2023-07-24T06:05:13;20.4;72.5
78438;SHT31;67736;51.978;5.656;2023-07-24T06:07:43;20.4;72.0
78438;SHT31;67736;51.978;5.656;2023-07-24T06:10:12;20.4;72.3
78438;SHT31;67736;51.978;5.656;2023-07-24T06:12:42;20.4;72.7
78438;SHT31;67736;51.978;5.656;2023-07-24T06:15:12;20.4;72.4
78438;SHT31;67736;51.978;5.656;2023-07-24T06:17:41;20.4;72.2
78438;SHT31;67736;51.978;5.656;2023-07-24T06:20:11;20.4;72.4
78438;SHT31;67736;51.978;5.656;2023-07-24T06:22:41;20.4;72.1
78438;SHT31;67736;51.978;5.656;2023-07-24T06:25:11;20.4;72.6
78438;SHT31;67736;51.978;5.656;2023-07-24T06:27:40;20.4;71.4
78438;SHT31;67736;51.978;5.656;2023-07-24T06:30:10;20.5;71.4
78438;SHT31;67736;51.978;5.656;2023-07-24T06:32:40;20.5;71.8
78438;SHT31;67736;51.978;5.656;2023-07-24T06:35:09;20.5;71.8
78438;SHT31;67736;51.978;5.656;2023-07-24T06:37:39;20.5;71.8
78438;SHT31;67736;51.978;5.656;2023-07-24T06:40:09;20.5;72.3
78438;SHT31;67736;51.978;5.656;2023-07-24T06:42:41;20.5;72.3
78438;SHT31;67736;51.978;5.656;2023-07-24T06:45:11;20.6;71.7
78438;SHT31;67736;51.978;5.656;2023-07-24T06:47:40;20.6;71.6
78438;SHT31;67736;51.978;5.656;2023-07-24T06:50:12;20.6;72.3
78438;SHT31;67736;51.978;5.656;2023-07-24T06:52:43;20.7;71.7
78438;SHT31;67736;51.978;5.656;2023-07-24T06:55:13;20.7;71.5
78438;SHT31;67736;51.978;5.656;2023-07-24T06:57:43;20.7;71.4
78438;SHT31;67736;51.978;5.656;2023-07-24T07:00:13;20.8;71.4
78438;SHT31;67736;51.978;5.656;2023-07-24T07:02:43;20.8;71.7
78438;SHT31;67736;51.978;5.656;2023-07-24T07:05:13;20.8;71.4
78438;SHT31;67736;51.978;5.656;2023-07-24T07:07:42;20.8;70.3
78438;SHT31;67736;51.978;5.656;2023-07-24T07:10:12;20.9;70.8
78438;SHT31;67736;51.978;5.656;2023-07-24T07:12:41;20.9;69.6
78438;SHT31;67736;51.978;5.656;2023-07-24T07:15:11;20.9;69.1
78438;SHT31;67736;51.978;5.656;2023-07-24T07:17:41;21.0;68.7
78438;SHT31;67736;51.978;5.656;2023-07-24T07:20:10;21.0;69.7
78438;SHT31;67736;51.978;5.656;2023-07-24T07:22:40;21.1;68.8
78438;SHT31;67736;51.978;5.656;2023-07-24T07:25:10;21.1;68.0
78438;SHT31;67736;51.978;5.656;2023-07-24T07:27:39;21.1;68.0
78438;SHT31;67736;51.978;5.656;2023-07-24T07:30:10;21.2;67.3
78438;SHT31;67736;51.978;5.656;2023-07-24T07:32:41;21.2;68.4
78438;SHT31;67736;51.978;5.656;2023-07-24T07:35:11;21.2;67.9
78438;SHT31;67736;51.978;5.656;2023-07-24T07:37:41;21.3;67.8
78438;SHT31;67736;51.978;5.656;2023-07-24T07:40:11;21.3;67.7
78438;SHT31;67736;51.978;5.656;2023-07-24T07:42:41;21.4;67.6
78438;SHT31;67736;51.978;5.656;2023-07-24T07:45:12;21.4;66.8
78438;SHT31;67736;51.978;5.656;2023-07-24T07:47:42;21.5;67.1
78438;SHT31;67736;51.978;5.656;2023-07-24T07:50:11;21.6;66.1
78438;SHT31;67736;51.978;5.656;2023-07-24T07:52:41;21.6;65.9
78438;SHT31;67736;51.978;5.656;2023-07-24T07:55:11;21.6;65.8
78438;SHT31;67736;51.978;5.656;2023-07-24T07:57:41;21.6;67.1
78438;SHT31;67736;51.978;5.656;2023-07-24T08:00:11;21.7;66.9
78438;SHT31;67736;51.978;5.656;2023-07-24T08:02:43;21.7;67.2
78438;SHT31;67736;51.978;5.656;2023-07-24T08:05:12;21.7;67.4
78438;SHT31;67736;51.978;5.656;2023-07-24T08:07:45;21.7;67.4
78438;SHT31;67736;51.978;5.656;2023-07-24T08:10:16;21.8;67.3
78438;SHT31;67736;51.978;5.656;2023-07-24T08:12:46;21.9;67.4
78438;SHT31;67736;51.978;5.656;2023-07-24T08:15:15;21.9;67.2
78438;SHT31;67736;51.978;5.656;2023-07-24T08:17:45;22.0;66.9
78438;SHT31;67736;51.978;5.656;2023-07-24T08:20:17;22.1;65.8
78438;SHT31;67736;51.978;5.656;2023-07-24T08:22:46;22.1;64.6
78438;SHT31;67736;51.978;5.656;2023-07-24T08:25:16;22.2;64.9
78438;SHT31;67736;51.978;5.656;2023-07-24T08:27:45;22.3;65.2
78438;SHT31;67736;51.978;5.656;2023-07-24T08:30:17;22.4;63.5
78438;SHT31;67736;51.978;5.656;2023-07-24T08:32:47;22.5;63.2
78438;SHT31;67736;51.978;5.656;2023-07-24T08:35:20;22.5;63.5
78438;SHT31;67736;51.978;5.656;2023-07-24T08:37:50;22.6;63.0
78438;SHT31;67736;51.978;5.656;2023-07-24T08:40:21;22.6;63.3
78438;SHT31;67736;51.978;5.656;2023-07-24T08:42:52;22.7;62.8
78438;SHT31;67736;51.978;5.656;2023-07-24T08:45:25;22.8;62.2
78438;SHT31;67736;51.978;5.656;2023-07-24T08:47:55;22.8;63.4
78438;SHT31;67736;51.978;5.656;2023-07-24T08:50:26;22.9;60.7
78438;SHT31;67736;51.978;5.656;2023-07-24T08:52:59;22.9;60.0
78438;SHT31;67736;51.978;5.656;2023-07-24T08:55:29;23.0;60.5
78438;SHT31;67736;51.978;5.656;2023-07-24T08:57:59;23.0;61.4
78438;SHT31;67736;51.978;5.656;2023-07-24T09:00:31;23.1;60.2
78438;SHT31;67736;51.978;5.656;2023-07-24T09:03:01;23.2;58.9
78438;SHT31;67736;51.978;5.656;2023-07-24T09:05:30;23.2;59.8
78438;SHT31;67736;51.978;5.656;2023-07-24T09:08:00;23.3;59.5
78438;SHT31;67736;51.978;5.656;2023-07-24T09:10:29;23.3;59.3
78438;SHT31;67736;51.978;5.656;2023-07-24T09:13:02;23.4;59.6
78438;SHT31;67736;51.978;5.656;2023-07-24T09:15:41;23.5;58.4
78438;SHT31;67736;51.978;5.656;2023-07-24T09:18:11;23.6;58.3
78438;SHT31;67736;51.978;5.656;2023-07-24T09:20:42;23.7;58.4
78438;SHT31;67736;51.978;5.656;2023-07-24T09:23:13;23.8;57.6
78438;SHT31;67736;51.978;5.656;2023-07-24T09:25:44;24.0;57.2
78438;SHT31;67736;51.978;5.656;2023-07-24T09:28:15;24.1;56.4
78438;SHT31;67736;51.978;5.656;2023-07-24T09:30:54;24.2;57.7
78438;SHT31;67736;51.978;5.656;2023-07-24T09:33:35;24.4;55.6
78438;SHT31;67736;51.978;5.656;2023-07-24T09:36:07;24.5;55.7
78438;SHT31;67736;51.978;5.656;2023-07-24T09:38:39;24.7;54.9
78438;SHT31;67736;51.978;5.656;2023-07-24T09:41:09;24.8;54.6
78438;SHT31;67736;51.978;5.656;2023-07-24T09:43:41;24.9;54.6
78438;SHT31;67736;51.978;5.656;2023-07-24T09:46:11;25.0;52.7
78438;SHT31;67736;51.978;5.656;2023-07-24T09:48:41;25.1;51.3
78438;SHT31;67736;51.978;5.656;2023-07-24T09:51:12;25.1;52.0
78438;SHT31;67736;51.978;5.656;2023-07-24T09:53:48;25.1;51.4
78438;SHT31;67736;51.978;5.656;2023-07-24T09:56:22;25.1;51.6
78438;SHT31;67736;51.978;5.656;2023-07-24T09:58:54;25.1;51.5
78438;SHT31;67736;51.978;5.656;2023-07-24T10:01:26;25.1;52.1
78438;SHT31;67736;51.978;5.656;2023-07-24T10:03:57;25.1;52.0
78438;SHT31;67736;51.978;5.656;2023-07-24T10:06:29;25.0;51.7
78438;SHT31;67736;51.978;5.656;2023-07-24T10:08:59;25.0;51.2
78438;SHT31;67736;51.978;5.656;2023-07-24T10:11:30;25.0;51.8
78438;SHT31;67736;51.978;5.656;2023-07-24T10:14:01;25.0;51.3
78438;SHT31;67736;51.978;5.656;2023-07-24T10:16:32;25.0;51.8
78438;SHT31;67736;51.978;5.656;2023-07-24T10:19:14;24.9;51.6
78438;SHT31;67736;51.978;5.656;2023-07-24T10:21:47;24.9;51.4
78438;SHT31;67736;51.978;5.656;2023-07-24T10:24:19;24.8;51.7
78438;SHT31;67736;51.978;5.656;2023-07-24T10:26:54;24.8;51.7
78438;SHT31;67736;51.978;5.656;2023-07-24T10:29:25;24.7;52.4
78438;SHT31;67736;51.978;5.656;2023-07-24T10:31:55;24.7;52.6
78438;SHT31;67736;51.978;5.656;2023-07-24T10:34:25;24.6;53.4
78438;SHT31;67736;51.978;5.656;2023-07-24T10:37:06;24.6;53.9
78438;SHT31;67736;51.978;5.656;2023-07-24T10:39:40;24.6;52.3
78438;SHT31;67736;51.978;5.656;2023-07-24T10:42:11;24.6;53.0
78438;SHT31;67736;51.978;5.656;2023-07-24T10:44:41;24.6;53.4
78438;SHT31;67736;51.978;5.656;2023-07-24T10:47:14;24.5;53.4
78438;SHT31;67736;51.978;5.656;2023-07-24T10:49:50;24.5;54.3
78438;SHT31;67736;51.978;5.656;2023-07-24T10:52:29;24.5;54.0
78438;SHT31;67736;51.978;5.656;2023-07-24T10:55:00;24.5;54.9
78438;SHT31;67736;51.978;5.656;2023-07-24T10:57:30;24.4;53.8
78438;SHT31;67736;51.978;5.656;2023-07-24T11:00:00;24.4;53.6
78438;SHT31;67736;51.978;5.656;2023-07-24T11:02:33;24.3;54.5
78438;SHT31;67736;51.978;5.656;2023-07-24T11:05:02;24.2;54.2
78438;SHT31;67736;51.978;5.656;2023-07-24T11:07:35;24.2;54.3
78438;SHT31;67736;51.978;5.656;2023-07-24T11:10:16;24.2;54.1
78438;SHT31;67736;51.978;5.656;2023-07-24T11:12:46;24.2;55.0
78438;SHT31;67736;51.978;5.656;2023-07-24T11:15:16;24.2;55.0
78438;SHT31;67736;51.978;5.656;2023-07-24T11:17:53;24.2;55.8
78438;SHT31;67736;51.978;5.656;2023-07-24T11:20:23;24.2;54.9
78438;SHT31;67736;51.978;5.656;2023-07-24T11:22:52;24.3;54.1
78438;SHT31;67736;51.978;5.656;2023-07-24T11:25:22;24.3;54.4
78438;SHT31;67736;51.978;5.656;2023-07-24T11:27:51;24.3;54.9
78438;SHT31;67736;51.978;5.656;2023-07-24T11:30:22;24.3;54.8
78438;SHT31;67736;51.978;5.656;2023-07-24T11:32:52;24.4;54.3
78438;SHT31;67736;51.978;5.656;2023-07-24T11:35:22;24.4;53.4
78438;SHT31;67736;51.978;5.656;2023-07-24T11:37:53;24.4;53.1
78438;SHT31;67736;51.978;5.656;2023-07-24T11:40:33;24.4;53.7
78438;SHT31;67736;51.978;5.656;2023-07-24T11:43:04;24.4;54.3
78438;SHT31;67736;51.978;5.656;2023-07-24T11:45:42;24.4;53.4
78438;SHT31;67736;51.978;5.656;2023-07-24T11:48:12;24.5;53.7
78438;SHT31;67736;51.978;5.656;2023-07-24T11:50:47;24.5;53.4
78438;SHT31;67736;51.978;5.656;2023-07-24T11:53:21;24.5;53.0
78438;SHT31;67736;51.978;5.656;2023-07-24T11:55:52;24.4;52.2
78438;SHT31;67736;51.978;5.656;2023-07-24T11:58:25;24.4;53.4
78438;SHT31;67736;51.978;5.656;2023-07-24T12:00:56;24.4;53.0
78438;SHT31;67736;51.978;5.656;2023-07-24T12:03:28;24.4;53.5
78438;SHT31;67736;51.978;5.656;2023-07-24T12:06:00;24.4;54.1
78438;SHT31;67736;51.978;5.656;2023-07-24T12:08:33;24.4;54.6
78438;SHT31;67736;51.978;5.656;2023-07-24T12:11:03;24.4;54.9
78438;SHT31;67736;51.978;5.656;2023-07-24T12:13:33;24.4;55.2
78438;SHT31;67736;51.978;5.656;2023-07-24T12:16:02;24.4;54.8
78438;SHT31;67736;51.978;5.656;2023-07-24T12:18:32;24.4;55.7
78438;SHT31;67736;51.978;5.656;2023-07-24T12:21:02;24.4;56.6
78438;SHT31;67736;51.978;5.656;2023-07-24T12:23:32;24.3;58.4
78438;SHT31;67736;51.978;5.656;2023-07-24T12:26:01;24.3;56.8
78438;SHT31;67736;51.978;5.656;2023-07-24T12:28:31;24.2;57.3
78438;SHT31;67736;51.978;5.656;2023-07-24T12:31:01;24.2;58.7
78438;SHT31;67736;51.978;5.656;2023-07-24T12:33:31;24.1;58.7
78438;SHT31;67736;51.978;5.656;2023-07-24T12:36:01;24.1;60.5
78438;SHT31;67736;51.978;5.656;2023-07-24T12:38:31;24.1;59.6
78438;SHT31;67736;51.978;5.656;2023-07-24T12:41:01;24.0;59.4
78438;SHT31;67736;51.978;5.656;2023-07-24T12:43:30;24.0;60.3
78438;SHT31;67736;51.978;5.656;2023-07-24T12:46:00;24.0;60.6
78438;SHT31;67736;51.978;5.656;2023-07-24T12:48:29;24.0;60.4
78438;SHT31;67736;51.978;5.656;2023-07-24T12:50:59;23.9;58.5
78438;SHT31;67736;51.978;5.656;2023-07-24T12:53:31;23.9;59.3
78438;SHT31;67736;51.978;5.656;2023-07-24T12:56:00;23.9;59.3
78438;SHT31;67736;51.978;5.656;2023-07-24T12:58:30;23.9;56.3
78438;SHT31;67736;51.978;5.656;2023-07-24T13:00:59;23.9;57.4
78438;SHT31;67736;51.978;5.656;2023-07-24T13:03:29;23.9;57.9
78438;SHT31;67736;51.978;5.656;2023-07-24T13:05:59;23.9;58.0
78438;SHT31;67736;51.978;5.656;2023-07-24T13:08:28;23.9;57.4
78438;SHT31;67736;51.978;5.656;2023-07-24T13:10:58;23.9;57.1
78438;SHT31;67736;51.978;5.656;2023-07-24T13:13:28;24.0;57.4
78438;SHT31;67736;51.978;5.656;2023-07-24T13:15:58;24.0;57.6
78438;SHT31;67736;51.978;5.656;2023-07-24T13:18:27;24.0;56.8
78438;SHT31;67736;51.978;5.656;2023-07-24T13:20:57;24.1;55.7
78438;SHT31;67736;51.978;5.656;2023-07-24T13:23:29;24.1;55.9
78438;SHT31;67736;51.978;5.656;2023-07-24T13:25:58;24.1;55.6
78438;SHT31;67736;51.978;5.656;2023-07-24T13:28:28;24.1;55.6
78438;SHT31;67736;51.978;5.656;2023-07-24T13:30:58;24.1;56.1
78438;SHT31;67736;51.978;5.656;2023-07-24T13:33:27;24.1;56.8
78438;SHT31;67736;51.978;5.656;2023-07-24T13:35:57;24.1;56.4
78438;SHT31;67736;51.978;5.656;2023-07-24T13:38:26;24.1;56.0
78438;SHT31;67736;51.978;5.656;2023-07-24T13:40:56;24.1;56.7
78438;SHT31;67736;51.978;5.656;2023-07-24T13:43:25;24.1;57.4
78438;SHT31;67736;51.978;5.656;2023-07-24T13:45:55;24.2;57.8
78438;SHT31;67736;51.978;5.656;2023-07-24T13:48:27;24.2;56.5
78438;SHT31;67736;51.978;5.656;2023-07-24T13:50:57;24.3;56.1
78438;SHT31;67736;51.978;5.656;2023-07-24T13:53:27;24.3;56.1
78438;SHT31;67736;51.978;5.656;2023-07-24T13:55:58;24.4;55.9
78438;SHT31;67736;51.978;5.656;2023-07-24T13:58:28;24.4;56.4
78438;SHT31;67736;51.978;5.656;2023-07-24T14:00:57;24.4;54.4
78438;SHT31;67736;51.978;5.656;2023-07-24T14:03:27;24.4;54.3
78438;SHT31;67736;51.978;5.656;2023-07-24T14:05:57;24.3;54.4
78438;SHT31;67736;51.978;5.656;2023-07-24T14:08:26;24.3;55.0
78438;SHT31;67736;51.978;5.656;2023-07-24T14:10:56;24.2;54.6
78438;SHT31;67736;51.978;5.656;2023-07-24T14:13:26;24.2;54.4
78438;SHT31;67736;51.978;5.656;2023-07-24T14:15:55;24.2;53.9
78438;SHT31;67736;51.978;5.656;2023-07-24T14:18:25;24.1;54.5
78438;SHT31;67736;51.978;5.656;2023-07-24T14:20:54;24.1;54.1
78438;SHT31;67736;51.978;5.656;2023-07-24T14:23:26;24.1;54.0
78438;SHT31;67736;51.978;5.656;2023-07-24T14:25:56;24.1;54.7
78438;SHT31;67736;51.978;5.656;2023-07-24T14:28:26;24.1;54.6
78438;SHT31;67736;51.978;5.656;2023-07-24T14:30:55;24.1;54.7
78438;SHT31;67736;51.978;5.656;2023-07-24T14:33:25;24.1;55.0
78438;SHT31;67736;51.978;5.656;2023-07-24T14:35:55;24.1;54.7
78438;SHT31;67736;51.978;5.656;2023-07-24T14:38:24;24.0;55.3
78438;SHT31;67736;51.978;5.656;2023-07-24T14:40:54;24.0;56.9
78438;SHT31;67736;51.978;5.656;2023-07-24T14:43:24;23.9;59.5
78438;SHT31;67736;51.978;5.656;2023-07-24T14:45:53;23.9;60.2
78438;SHT31;67736;51.978;5.656;2023-07-24T14:48:23;23.8;61.2
78438;SHT31;67736;51.978;5.656;2023-07-24T14:50:52;23.7;62.2
78438;SHT31;67736;51.978;5.656;2023-07-24T14:53:22;23.6;62.3
78438;SHT31;67736;51.978;5.656;2023-07-24T14:55:52;23.6;62.5
78438;SHT31;67736;51.978;5.656;2023-07-24T14:58:21;23.5;63.2
78438;SHT31;67736;51.978;5.656;2023-07-24T15:00:51;23.4;62.3
78438;SHT31;67736;51.978;5.656;2023-07-24T15:03:22;23.4;62.6
78438;SHT31;67736;51.978;5.656;2023-07-24T15:05:52;23.3;63.8
78438;SHT31;67736;51.978;5.656;2023-07-24T15:08:23;23.2;62.9
78438;SHT31;67736;51.978;5.656;2023-07-24T15:10:53;23.2;63.9
78438;SHT31;67736;51.978;5.656;2023-07-24T15:13:25;23.1;64.2
78438;SHT31;67736;51.978;5.656;2023-07-24T15:15:54;23.1;64.2
78438;SHT31;67736;51.978;5.656;2023-07-24T15:18:24;23.1;64.4
78438;SHT31;67736;51.978;5.656;2023-07-24T15:20:56;23.0;63.9
78438;SHT31;67736;51.978;5.656;2023-07-24T15:23:26;23.0;64.5
78438;SHT31;67736;51.978;5.656;2023-07-24T15:25:56;23.0;65.1
78438;SHT31;67736;51.978;5.656;2023-07-24T15:28:26;22.9;63.9
78438;SHT31;67736;51.978;5.656;2023-07-24T15:30:56;22.9;64.0
78438;SHT31;67736;51.978;5.656;2023-07-24T15:33:26;22.9;64.8
78438;SHT31;67736;51.978;5.656;2023-07-24T15:35:56;22.8;66.0
78438;SHT31;67736;51.978;5.656;2023-07-24T15:38:26;22.8;66.0
78438;SHT31;67736;51.978;5.656;2023-07-24T15:40:55;22.8;65.0
78438;SHT31;67736;51.978;5.656;2023-07-24T15:43:27;22.8;65.1
78438;SHT31;67736;51.978;5.656;2023-07-24T15:45:56;22.8;63.6
78438;SHT31;67736;51.978;5.656;2023-07-24T15:48:26;22.8;63.5
78438;SHT31;67736;51.978;5.656;2023-07-24T15:50:57;22.8;62.0
78438;SHT31;67736;51.978;5.656;2023-07-24T15:53:27;22.8;61.8
78438;SHT31;67736;51.978;5.656;2023-07-24T15:55:58;22.8;61.3
78438;SHT31;67736;51.978;5.656;2023-07-24T15:58:28;22.8;59.8
78438;SHT31;67736;51.978;5.656;2023-07-24T16:00:57;22.8;60.2
78438;SHT31;67736;51.978;5.656;2023-07-24T16:03:27;22.8;60.2
78438;SHT31;67736;51.978;5.656;2023-07-24T16:05:57;22.8;61.5
78438;SHT31;67736;51.978;5.656;2023-07-24T16:08:26;22.8;60.2
78438;SHT31;67736;51.978;5.656;2023-07-24T16:10:56;22.8;60.9
78438;SHT31;67736;51.978;5.656;2023-07-24T16:13:28;22.7;60.5
78438;SHT31;67736;51.978;5.656;2023-07-24T16:15:59;22.7;59.7
78438;SHT31;67736;51.978;5.656;2023-07-24T16:18:29;22.7;59.0
78438;SHT31;67736;51.978;5.656;2023-07-24T16:20:59;22.6;59.0
78438;SHT31;67736;51.978;5.656;2023-07-24T16:23:29;22.6;58.8